Skip Navigation Links Skip Navigation Links

Current Weather

Volk Field, Camp Douglas, Wis.

For information only: do not use for flight planning or navigation.
Latest weather
Observation time Friday, December 3, 2021 4:21 AM CST
Local time Friday, December 3, 2021 4:38 AM CST
Flight conditions Low Instrument Meteorological Conditions
Winds
Wind speed calm
Visibility 2 mi.
Present weather light snow, mist
Sky condition
Ceiling 400 ft. overcast
Cloud layer overcast 400 ft.
Temperature 32°F
Dewpoint 30°F
Altimeter 30.04 in.Hg
Derived measurements
Relative humidity 93%
Wind chill 32°F
Density altitude -974 ft.
Sea-level pressure 30.08 in.Hg
Remarks
Special weather observation.
Fully automated report.
Automated weather observing station with precipitation discriminator.
METAR SPECI KVOK 031021Z AUTO 00000KT 2SM -SN BR OVC004 00/M01 A3004 RMK AO2 SLP185

Settings

Location code

InnerDrive.Weather 4.0.6770.0 Release CLR 4.0.30319.42000
Copyright ©2018 Inner Drive Technology. All rights reserved. Portions Copyright ©1986-2018 David Braverman.

Find weather

Site navigation


Skip Navigation Links

Place info

Page info

PayPal - The safer, easier way to pay online!

Return home.

Copyright ©2021 Inner Drive Technology. Purveyors of fine, hand-crafted computer software. Page printed 2021-12-03T10:38:09 UTC.